Terminal Aerodrome Forecast
Issued by NWS

Home | Current Version | Previous Version | Text Only | Print | Product List | Glossary On
Versions: 1 2 3 4 5 6 7 8 9 10 11 12 13 14 15 16 17 18 19 20 21 22 23
000
FTUS45 KGGW 262300
TAFOLF
TAF
KOLF 262325Z 2700/2724 12008KT P6SM VCTS SCT060CB BKN200
     FM270400 VRB04KT P6SM SCT150
     FM271800 12015G25KT 4SM -TSRA SCT060CB BKN150=

USA.gov is the U.S. government's official web portal to all federal, state and local government web resources and services.